createdAt,value
2018-11-12T00:01:43.813Z,3.10
2018-11-12T00:04:13.715Z,3.67
2018-11-12T00:06:43.524Z,3.10
2018-11-12T00:09:13.363Z,5.13
2018-11-12T00:11:43.347Z,3.07
2018-11-12T00:14:13.171Z,2.13
2018-11-12T00:16:43.511Z,2.73
2018-11-12T00:19:13.821Z,3.20
2018-11-12T00:21:43.698Z,3.10
2018-11-12T00:24:13.601Z,2.57
2018-11-12T00:26:43.330Z,3.07
2018-11-12T00:29:13.147Z,3.97
2018-11-12T00:31:42.992Z,3.73
2018-11-12T00:34:12.786Z,3.70
2018-11-12T00:36:43.348Z,3.10
2018-11-12T00:39:13.818Z,3.70
2018-11-12T00:41:43.570Z,4.50
2018-11-12T00:44:13.577Z,3.03
2018-11-12T00:46:43.566Z,2.57
2018-11-12T00:49:13.271Z,4.73
2018-11-12T00:51:43.055Z,4.67
2018-11-12T00:54:12.822Z,2.90
2018-11-12T00:56:42.643Z,3.13
2018-11-12T00:59:12.384Z,2.50
2018-11-12T01:01:42.243Z,3.07
2018-11-12T01:04:12.036Z,2.70
2018-11-12T01:06:41.677Z,3.33
2018-11-12T01:09:12.640Z,3.10
2018-11-12T01:11:42.668Z,3.60
2018-11-12T01:14:12.455Z,3.57
2018-11-12T01:16:42.176Z,2.53
2018-11-12T01:19:11.882Z,3.30
2018-11-12T01:21:41.719Z,3.17
2018-11-12T01:24:11.639Z,2.83
2018-11-12T01:26:41.450Z,2.47
2018-11-12T01:29:11.220Z,4.97
2018-11-12T01:31:41.077Z,2.63
2018-11-12T01:34:10.887Z,2.50
2018-11-12T01:36:40.807Z,2.77
2018-11-12T01:39:11.758Z,3.40
2018-11-12T01:41:42.484Z,3.87
2018-11-12T01:44:12.258Z,2.17
2018-11-12T01:46:42.294Z,2.23
2018-11-12T01:49:12.076Z,1.97
2018-11-12T01:51:42.050Z,2.53
2018-11-12T01:54:11.949Z,2.33
2018-11-12T01:56:41.624Z,2.23
2018-11-12T01:59:11.520Z,2.13
2018-11-12T02:01:41.404Z,4.67
2018-11-12T02:04:11.137Z,3.33
2018-11-12T02:06:40.922Z,3.10
2018-11-12T02:09:12.403Z,1.67
2018-11-12T02:11:42.360Z,2.20
2018-11-12T02:14:12.155Z,2.80
2018-11-12T02:16:41.882Z,1.53
2018-11-12T02:19:11.637Z,2.80
2018-11-12T02:21:41.493Z,4.03
2018-11-12T02:24:11.189Z,1.50
2018-11-12T02:26:40.923Z,4.90
2018-11-12T02:29:10.766Z,2.70
2018-11-12T02:31:40.558Z,3.70
2018-11-12T02:34:10.293Z,1.63
2018-11-12T02:36:40.072Z,2.43
2018-11-12T02:39:11.545Z,1.63
2018-11-12T02:41:41.499Z,4.50
2018-11-12T02:44:11.399Z,3.30
2018-11-12T02:46:41.203Z,3.57
2018-11-12T02:49:11.089Z,2.83
2018-11-12T02:51:40.855Z,4.30
2018-11-12T02:54:10.917Z,1.00
2018-11-12T02:56:40.715Z,1.20
2018-11-12T02:59:11.160Z,1.10
2018-11-12T03:01:41.016Z,1.33
2018-11-12T03:04:10.699Z,1.37
2018-11-12T03:06:40.644Z,2.87
2018-11-12T03:09:13.300Z,1.93
2018-11-12T03:11:43.878Z,1.60
2018-11-12T03:14:13.725Z,2.80
2018-11-12T03:16:43.453Z,1.53
2018-11-12T03:19:13.323Z,1.90
2018-11-12T03:21:43.152Z,1.73
2018-11-12T03:24:12.868Z,1.20
2018-11-12T03:26:42.598Z,1.73
2018-11-12T03:29:12.514Z,2.77
2018-11-12T03:31:42.335Z,3.50
2018-11-12T03:34:12.256Z,2.27
2018-11-12T03:36:42.050Z,1.60
2018-11-12T03:39:12.335Z,4.97
2018-11-12T03:41:42.352Z,4.10
2018-11-12T03:44:12.175Z,4.00
2018-11-12T03:46:42.564Z,2.43
2018-11-12T03:49:12.259Z,4.53
2018-11-12T03:51:42.057Z,3.83
2018-11-12T03:54:11.886Z,2.03
2018-11-12T03:56:41.794Z,2.23
2018-11-12T03:59:12.163Z,3.47
2018-11-12T04:01:44.911Z,3.27
2018-11-12T04:04:16.637Z,2.23
2018-11-12T04:06:47.113Z,3.87
2018-11-12T04:09:16.814Z,3.53
2018-11-12T04:11:46.726Z,3.23
2018-11-12T04:14:16.522Z,2.60
2018-11-12T04:16:46.450Z,2.13
2018-11-12T04:19:16.245Z,2.93
2018-11-12T04:21:46.076Z,4.23
2018-11-12T04:24:16.508Z,2.57
2018-11-12T04:26:46.511Z,2.60
2018-11-12T04:29:16.297Z,3.50
2018-11-12T04:31:46.052Z,3.43
2018-11-12T04:34:16.041Z,2.57
2018-11-12T04:36:45.847Z,3.10
2018-11-12T04:39:16.282Z,4.97
2018-11-12T04:41:45.982Z,4.60
2018-11-12T04:44:15.783Z,5.77
2018-11-12T04:46:45.503Z,2.97
2018-11-12T04:49:15.308Z,4.30
2018-11-12T04:51:45.024Z,3.30
2018-11-12T04:54:14.719Z,1.93
2018-11-12T04:56:44.467Z,2.33
2018-11-12T04:59:14.432Z,2.73
2018-11-12T05:01:44.291Z,2.37
2018-11-12T05:04:14.151Z,3.13
2018-11-12T05:06:43.963Z,3.77
2018-11-12T05:09:13.733Z,1.60
2018-11-12T05:11:43.400Z,1.97
2018-11-12T05:14:13.350Z,1.97
2018-11-12T05:16:43.308Z,1.80
2018-11-12T05:19:13.239Z,2.90
2018-11-12T05:21:43.071Z,2.07
2018-11-12T05:24:13.540Z,3.23
2018-11-12T05:26:43.457Z,3.77
2018-11-12T05:29:13.138Z,2.10
2018-11-12T05:31:42.839Z,1.80
2018-11-12T05:34:12.662Z,3.23
2018-11-12T05:36:42.402Z,2.37
2018-11-12T05:39:13.430Z,1.70
2018-11-12T05:41:43.082Z,3.00
2018-11-12T05:44:12.847Z,2.07
2018-11-12T05:46:42.635Z,2.73
2018-11-12T05:49:12.574Z,4.47
2018-11-12T05:51:42.419Z,3.50
2018-11-12T05:54:12.630Z,1.23
2018-11-12T05:56:42.308Z,1.73
2018-11-12T05:59:12.094Z,1.37
2018-11-12T06:01:41.881Z,5.07
2018-11-12T06:04:11.626Z,2.47
2018-11-12T06:06:41.358Z,2.83
2018-11-12T06:09:12.363Z,2.53
2018-11-12T06:11:42.065Z,2.63
2018-11-12T06:14:11.820Z,2.50
2018-11-12T06:16:41.762Z,2.37
2018-11-12T06:19:11.707Z,3.47
2018-11-12T06:21:41.652Z,3.50
2018-11-12T06:24:11.367Z,1.17
2018-11-12T06:26:41.332Z,1.70
2018-11-12T06:29:11.415Z,3.57
2018-11-12T06:31:41.370Z,2.07
2018-11-12T06:34:11.143Z,3.77
2018-11-12T06:36:41.020Z,5.77
2018-11-12T06:39:10.894Z,1.70
2018-11-12T06:41:41.588Z,1.30
2018-11-12T06:44:11.293Z,1.47
2018-11-12T06:46:41.441Z,3.83
2018-11-12T06:49:11.141Z,2.00
2018-11-12T06:51:40.839Z,1.80
2018-11-12T06:54:10.535Z,2.73
2018-11-12T06:56:40.410Z,3.43
2018-11-12T06:59:10.214Z,2.57
2018-11-12T07:01:39.899Z,2.57
2018-11-12T07:04:09.799Z,1.93
2018-11-12T07:06:39.616Z,1.43
2018-11-12T07:09:12.307Z,2.63
2018-11-12T07:11:42.238Z,2.50
2018-11-12T07:14:11.900Z,3.80
2018-11-12T07:16:41.859Z,4.47
2018-11-12T07:19:12.178Z,2.30
2018-11-12T07:21:42.187Z,4.20
2018-11-12T07:24:13.224Z,2.53
2018-11-12T07:26:43.262Z,5.27
2018-11-12T07:29:15.462Z,3.17
2018-11-12T07:31:46.182Z,4.07
2018-11-12T07:34:16.961Z,3.87
2018-11-12T07:36:47.099Z,3.23
2018-11-12T07:39:17.475Z,3.33
2018-11-12T07:41:47.429Z,3.53
2018-11-12T07:44:18.485Z,3.70
2018-11-12T07:46:49.006Z,2.43
2018-11-12T07:49:20.947Z,5.80
2018-11-12T07:51:50.674Z,2.93
2018-11-12T07:54:21.965Z,3.93
2018-11-12T07:56:51.598Z,2.87
2018-11-12T07:59:21.802Z,7.93
2018-11-12T08:01:51.598Z,3.33
2018-11-12T08:04:21.422Z,4.23
2018-11-12T08:06:52.784Z,6.97
2018-11-12T08:09:22.559Z,6.20
2018-11-12T08:11:52.464Z,3.07
2018-11-12T08:14:22.238Z,3.27
2018-11-12T08:16:52.003Z,2.97
2018-11-12T08:19:21.917Z,4.30
2018-11-12T08:21:51.815Z,4.10
2018-11-12T08:24:21.597Z,6.80
2018-11-12T08:26:51.219Z,4.83
2018-11-12T08:29:21.047Z,3.50
2018-11-12T08:31:51.138Z,5.77
2018-11-12T08:34:20.954Z,4.03
2018-11-12T08:36:51.692Z,3.43
2018-11-12T08:39:21.675Z,4.93
2018-11-12T08:41:51.430Z,4.30
2018-11-12T08:44:21.263Z,4.00
2018-11-12T08:46:51.107Z,5.53
2018-11-12T08:49:20.906Z,5.43
2018-11-12T08:51:50.698Z,3.33
2018-11-12T08:54:20.502Z,4.23
2018-11-12T08:56:50.146Z,7.47
2018-11-12T08:59:20.212Z,5.80
2018-11-12T09:01:50.015Z,3.37
2018-11-12T09:04:19.874Z,3.53
2018-11-12T09:06:49.688Z,3.53
2018-11-12T09:09:31.287Z,5.20
2018-11-12T09:12:01.196Z,2.87
2018-11-12T09:14:30.982Z,3.50
2018-11-12T09:17:00.699Z,4.17
2018-11-12T09:19:30.999Z,5.23
2018-11-12T09:22:01.019Z,4.90
2018-11-12T09:24:31.893Z,3.93
2018-11-12T09:27:01.765Z,5.43
2018-11-12T09:29:32.770Z,1.93
2018-11-12T09:32:02.403Z,6.73
2018-11-12T09:34:32.288Z,4.20
2018-11-12T09:37:02.322Z,3.43
2018-11-12T09:39:32.022Z,3.20
2018-11-12T09:42:01.715Z,2.17
2018-11-12T09:44:31.505Z,3.63
2018-11-12T09:47:01.369Z,3.80
2018-11-12T09:49:31.564Z,4.00
2018-11-12T09:52:01.455Z,4.80
2018-11-12T09:54:31.330Z,4.57
2018-11-12T09:57:01.776Z,3.33
2018-11-12T09:59:31.620Z,3.30
2018-11-12T10:02:02.212Z,4.30
2018-11-12T10:04:32.580Z,3.77
2018-11-12T10:07:03.372Z,4.73
2018-11-12T10:09:33.332Z,5.43
2018-11-12T10:12:02.967Z,3.47
2018-11-12T10:14:33.988Z,6.07
2018-11-12T10:17:03.652Z,3.10
2018-11-12T10:19:30.570Z,4.77
2018-11-12T10:22:00.452Z,2.93
2018-11-12T10:24:30.141Z,5.83
2018-11-12T10:27:00.101Z,5.43
2018-11-12T10:29:29.878Z,6.17
2018-11-12T10:31:59.912Z,6.67
2018-11-12T10:34:29.606Z,6.77
2018-11-12T10:36:59.987Z,6.30
2018-11-12T10:39:30.178Z,6.57
2018-11-12T10:42:00.003Z,5.00
2018-11-12T10:44:29.797Z,5.33
2018-11-12T10:46:59.492Z,7.43
2018-11-12T10:49:29.419Z,6.63
2018-11-12T10:51:59.691Z,9.07
2018-11-12T10:54:29.682Z,8.63
2018-11-12T10:56:59.714Z,10.07
2018-11-12T10:59:29.506Z,10.90
2018-11-12T11:02:04.658Z,9.73
2018-11-12T11:04:34.502Z,14.90
2018-11-12T11:07:04.181Z,14.40
2018-11-12T11:09:34.477Z,10.63
2018-11-12T11:12:04.407Z,12.33
2018-11-12T11:14:34.186Z,13.63
2018-11-12T11:17:04.862Z,13.63
2018-11-12T11:19:34.854Z,11.13
2018-11-12T11:22:04.819Z,8.80
2018-11-12T11:24:34.697Z,8.07
2018-11-12T11:27:04.567Z,14.33
2018-11-12T11:29:34.415Z,6.97
2018-11-12T11:32:04.478Z,10.57
2018-11-12T11:34:34.388Z,10.07
2018-11-12T11:37:04.286Z,8.30
2018-11-12T11:39:34.281Z,9.20
2018-11-12T11:42:04.178Z,11.13
2018-11-12T11:44:33.874Z,9.67
2018-11-12T11:47:03.666Z,11.87
2018-11-12T11:49:33.567Z,12.13
2018-11-12T11:52:03.331Z,9.33
2018-11-12T11:54:33.076Z,10.20
2018-11-12T11:57:03.033Z,9.03
2018-11-12T11:59:32.761Z,14.37
2018-11-12T12:02:02.528Z,10.83
2018-11-12T12:04:32.343Z,13.57
2018-11-12T12:07:02.391Z,10.93
2018-11-12T12:09:32.277Z,15.87
2018-11-12T12:12:02.231Z,14.60
2018-11-12T12:14:31.923Z,13.33
2018-11-12T12:17:02.762Z,16.07
2018-11-12T12:19:32.582Z,21.27
2018-11-12T12:22:02.431Z,17.13
2018-11-12T12:24:32.235Z,19.67
2018-11-12T12:27:01.862Z,15.67
2018-11-12T12:29:31.958Z,20.40
2018-11-12T12:32:01.899Z,19.30
2018-11-12T12:34:32.330Z,15.87
2018-11-12T12:37:02.067Z,20.80
2018-11-12T12:39:31.803Z,25.17
2018-11-12T12:42:01.810Z,23.00
2018-11-12T12:44:33.539Z,21.73
2018-11-12T12:47:03.977Z,16.93
2018-11-12T12:49:34.717Z,19.77
2018-11-12T12:52:05.737Z,22.97
2018-11-12T12:54:35.876Z,16.97
2018-11-12T12:57:05.898Z,15.70
2018-11-12T12:59:35.706Z,16.03
2018-11-12T13:02:05.723Z,14.47
2018-11-12T13:04:35.515Z,18.87
2018-11-12T13:07:05.181Z,20.13
2018-11-12T13:09:35.016Z,29.53
2018-11-12T13:12:04.875Z,24.63
2018-11-12T13:14:34.628Z,26.90
2018-11-12T13:17:04.311Z,23.63
2018-11-12T13:19:34.141Z,24.30
2018-11-12T13:22:03.887Z,22.43
2018-11-12T13:24:33.766Z,22.40
2018-11-12T13:27:03.515Z,19.47
2018-11-12T13:29:33.426Z,16.90
2018-11-12T13:32:03.277Z,17.23
2018-11-12T13:34:34.069Z,16.63
2018-11-12T13:37:03.813Z,18.37
2018-11-12T13:39:33.580Z,22.80
2018-11-12T13:42:03.330Z,20.53
2018-11-12T13:44:33.002Z,19.20
2018-11-12T13:47:02.855Z,18.03
2018-11-12T13:49:32.638Z,17.87
2018-11-12T13:52:03.286Z,15.70
2018-11-12T13:54:33.074Z,14.93
2018-11-12T13:57:02.943Z,18.70
2018-11-12T13:59:32.819Z,14.73
2018-11-12T14:02:02.660Z,15.40
2018-11-12T14:04:32.507Z,18.10
2018-11-12T14:07:02.501Z,13.93
2018-11-12T14:09:32.454Z,14.80
2018-11-12T14:12:03.127Z,16.13
2018-11-12T14:14:33.134Z,14.73
2018-11-12T14:17:02.980Z,13.57
2018-11-12T14:19:32.711Z,12.30
2018-11-12T14:22:04.680Z,10.07
2018-11-12T14:24:34.546Z,9.67
2018-11-12T14:27:04.352Z,8.60
2018-11-12T14:29:34.289Z,7.10
2018-11-12T14:32:04.213Z,7.67
2018-11-12T14:34:34.197Z,8.43
2018-11-12T14:37:04.250Z,8.23
2018-11-12T14:39:34.474Z,8.73
2018-11-12T14:42:04.211Z,10.60
2018-11-12T14:44:34.309Z,9.27
2018-11-12T14:47:04.195Z,8.57
2018-11-12T14:49:34.066Z,7.77
2018-11-12T14:52:03.763Z,9.93
2018-11-12T14:54:33.615Z,7.83
2018-11-12T14:57:03.474Z,7.37
2018-11-12T14:59:33.259Z,7.03
2018-11-12T15:02:03.302Z,6.40
2018-11-12T15:04:33.274Z,6.13
2018-11-12T15:07:03.228Z,7.33
2018-11-12T15:09:33.234Z,6.50
2018-11-12T15:12:03.142Z,8.93
2018-11-12T15:14:32.910Z,7.43
2018-11-12T15:17:02.913Z,9.13
2018-11-12T15:19:32.667Z,7.60
2018-11-12T15:22:02.752Z,6.43
2018-11-12T15:24:33.111Z,6.97
2018-11-12T15:27:03.536Z,6.73
2018-11-12T15:29:33.633Z,7.33
2018-11-12T15:32:03.274Z,9.33
2018-11-12T15:34:33.040Z,9.23
2018-11-12T15:37:03.290Z,9.73
2018-11-12T15:39:33.011Z,8.60
2018-11-12T15:42:02.895Z,8.70
2018-11-12T15:44:32.714Z,7.70
2018-11-12T15:47:02.859Z,7.80
2018-11-12T15:49:32.586Z,7.23
2018-11-12T15:52:02.443Z,7.77
2018-11-12T15:54:32.211Z,7.03
2018-11-12T15:57:02.238Z,7.10
2018-11-12T15:59:32.058Z,6.70
2018-11-12T16:02:01.845Z,7.13
2018-11-12T16:04:31.742Z,6.73
2018-11-12T16:07:01.503Z,8.17
2018-11-12T16:09:31.305Z,7.77
2018-11-12T16:12:02.006Z,7.80
2018-11-12T16:14:32.860Z,7.40
2018-11-12T16:17:04.166Z,7.90
2018-11-12T16:19:33.884Z,9.90
2018-11-12T16:22:03.616Z,8.80
2018-11-12T16:24:33.472Z,9.20
2018-11-12T16:27:03.370Z,9.13
2018-11-12T16:29:40.110Z,9.97
2018-11-12T16:32:09.932Z,10.97
2018-11-12T16:34:39.732Z,9.97
2018-11-12T16:37:09.500Z,10.40
2018-11-12T16:39:39.562Z,11.17
2018-11-12T16:42:09.410Z,9.53
2018-11-12T16:44:39.755Z,9.10
2018-11-12T16:47:09.615Z,9.27
2018-11-12T16:49:39.603Z,8.70
2018-11-12T16:52:09.931Z,9.33
2018-11-12T16:54:39.704Z,9.40
2018-11-12T16:57:09.540Z,10.30
2018-11-12T16:59:39.363Z,10.57
2018-11-12T17:02:09.263Z,10.47
2018-11-12T17:04:39.995Z,11.00
2018-11-12T17:07:09.773Z,10.77
2018-11-12T17:09:39.746Z,10.87
2018-11-12T17:12:10.108Z,10.10
2018-11-12T17:14:39.946Z,11.23
2018-11-12T17:17:09.775Z,12.10
2018-11-12T17:19:39.620Z,12.60
2018-11-12T17:22:09.494Z,14.40
2018-11-12T17:24:39.293Z,12.10
2018-11-12T17:27:09.086Z,11.80
2018-11-12T17:29:39.026Z,10.90
2018-11-12T17:32:08.810Z,12.30
2018-11-12T17:34:38.716Z,13.53
2018-11-12T17:37:08.564Z,12.67
2018-11-12T17:39:39.445Z,16.17
2018-11-12T17:42:09.329Z,11.93
2018-11-12T17:44:39.305Z,13.37
2018-11-12T17:47:10.902Z,12.77
2018-11-12T17:49:41.016Z,12.73
2018-11-12T17:52:10.818Z,14.20
2018-11-12T17:54:40.833Z,14.20
2018-11-12T17:57:10.689Z,15.77
2018-11-12T17:59:40.502Z,14.87
2018-11-12T18:02:10.395Z,13.43
2018-11-12T18:04:40.387Z,13.77
2018-11-12T18:07:10.791Z,14.37
2018-11-12T18:09:40.713Z,15.30
2018-11-12T18:12:10.513Z,16.83
2018-11-12T18:14:40.422Z,17.33
2018-11-12T18:17:10.164Z,15.93
2018-11-12T18:19:39.980Z,19.53
2018-11-12T18:22:10.018Z,18.93
2018-11-12T18:24:39.866Z,20.13
2018-11-12T18:27:09.826Z,19.50
2018-11-12T18:29:40.521Z,21.73
2018-11-12T18:32:10.234Z,19.77
2018-11-12T18:34:40.051Z,24.77
2018-11-12T18:37:09.900Z,22.07
2018-11-12T18:39:39.770Z,25.80
2018-11-12T18:42:09.914Z,22.67
2018-11-12T18:44:39.796Z,27.10
2018-11-12T18:47:09.745Z,27.47
2018-11-12T18:49:39.887Z,28.10
2018-11-12T18:52:09.783Z,26.57
2018-11-12T18:54:40.171Z,24.60
2018-11-12T18:57:10.273Z,21.33
2018-11-12T18:59:40.041Z,21.20
2018-11-12T19:02:10.082Z,18.60
2018-11-12T19:04:39.958Z,22.50
2018-11-12T19:07:09.854Z,20.40
2018-11-12T19:09:39.842Z,20.33
2018-11-12T19:12:09.650Z,22.67
2018-11-12T19:14:39.731Z,22.50
2018-11-12T19:17:09.620Z,25.80
2018-11-12T19:19:39.512Z,22.13
2018-11-12T19:22:09.613Z,22.23
2018-11-12T19:24:39.567Z,22.83
2018-11-12T19:27:10.094Z,21.67
2018-11-12T19:29:40.142Z,22.23
2018-11-12T19:32:10.111Z,21.10
2018-11-12T19:34:40.050Z,19.43
2018-11-12T19:37:09.974Z,18.33
2018-11-12T19:39:39.967Z,20.20
2018-11-12T19:42:10.038Z,20.00
2018-11-12T19:44:40.170Z,20.93
2018-11-12T19:47:09.969Z,19.87
2018-11-12T19:49:40.006Z,20.00
2018-11-12T19:52:10.115Z,19.60
2018-11-12T19:54:40.031Z,19.40
2018-11-12T19:57:10.779Z,20.57
2018-11-12T19:59:41.480Z,21.00
2018-11-12T20:02:11.217Z,22.13
2018-11-12T20:04:41.190Z,23.23
2018-11-12T20:07:11.196Z,23.83
2018-11-12T20:09:41.003Z,25.03
2018-11-12T20:12:11.136Z,23.50
2018-11-12T20:14:40.880Z,20.83
2018-11-12T20:17:10.975Z,21.07
2018-11-12T20:19:40.871Z,22.43
2018-11-12T20:22:10.756Z,18.00
2018-11-12T20:24:40.857Z,19.93
2018-11-12T20:27:10.679Z,20.67
2018-11-12T20:29:40.555Z,19.37
2018-11-12T20:32:10.438Z,21.83
2018-11-12T20:34:40.245Z,19.20
2018-11-12T20:37:10.087Z,19.80
2018-11-12T20:39:40.482Z,19.07
2018-11-12T20:42:10.399Z,17.90
2018-11-12T20:44:40.214Z,19.00
2018-11-12T20:47:10.140Z,20.43
2018-11-12T20:49:40.391Z,18.37
2018-11-12T20:52:10.206Z,19.63
2018-11-12T20:54:40.206Z,21.47
2018-11-12T20:57:10.066Z,22.93
2018-11-12T20:59:39.807Z,21.07
2018-11-12T21:02:09.636Z,22.33
2018-11-12T21:04:39.443Z,22.90
2018-11-12T21:07:09.371Z,24.30
2018-11-12T21:09:39.622Z,27.70
2018-11-12T21:12:09.403Z,31.80
2018-11-12T21:14:39.922Z,30.10
2018-11-12T21:17:09.707Z,25.60
2018-11-12T21:19:39.715Z,24.70
2018-11-12T21:22:13.762Z,24.60
2018-11-12T21:24:44.001Z,24.63
2018-11-12T21:27:13.793Z,25.60
2018-11-12T21:29:43.717Z,26.37
2018-11-12T21:32:13.771Z,23.47
2018-11-12T21:34:43.585Z,27.27
2018-11-12T21:37:14.090Z,26.13
2018-11-12T21:39:44.060Z,25.03
2018-11-12T21:42:13.927Z,26.43
2018-11-12T21:44:43.895Z,29.77
2018-11-12T21:47:13.863Z,25.67
2018-11-12T21:49:44.538Z,26.37
2018-11-12T21:52:14.687Z,25.90
2018-11-12T21:54:44.625Z,25.20
2018-11-12T21:57:14.620Z,25.63
2018-11-12T21:59:44.597Z,27.20
2018-11-12T22:02:14.547Z,28.80
2018-11-12T22:04:44.245Z,28.57
2018-11-12T22:07:14.262Z,27.00
2018-11-12T22:09:44.169Z,30.43
2018-11-12T22:12:14.115Z,25.83
2018-11-12T22:14:43.926Z,26.33
2018-11-12T22:17:13.858Z,25.17
2018-11-12T22:19:44.051Z,25.20
2018-11-12T22:22:13.669Z,27.20
2018-11-12T22:24:43.750Z,26.33
2018-11-12T22:27:13.591Z,29.77
2018-11-12T22:29:43.586Z,24.23
2018-11-12T22:32:13.459Z,27.17
2018-11-12T22:34:43.460Z,27.80
2018-11-12T22:37:13.407Z,28.60
2018-11-12T22:39:44.078Z,23.97
2018-11-12T22:42:13.898Z,26.47
2018-11-12T22:44:43.613Z,25.60
2018-11-12T22:47:13.436Z,27.33
2018-11-12T22:49:43.867Z,25.93
2018-11-12T22:52:14.085Z,25.60
2018-11-12T22:54:43.922Z,23.43
2018-11-12T22:57:13.710Z,23.80
2018-11-12T22:59:43.491Z,24.33
2018-11-12T23:02:13.450Z,23.53
2018-11-12T23:04:43.337Z,23.47
2018-11-12T23:07:13.203Z,23.77
2018-11-12T23:09:42.950Z,22.33
2018-11-12T23:12:12.860Z,24.37
2018-11-12T23:14:42.575Z,25.23
2018-11-12T23:17:12.461Z,24.53
2018-11-12T23:19:42.294Z,24.43
2018-11-12T23:22:12.188Z,26.47
2018-11-12T23:24:42.151Z,24.00
2018-11-12T23:27:11.953Z,23.27
2018-11-12T23:29:41.771Z,23.50
2018-11-12T23:32:11.615Z,24.63
2018-11-12T23:34:41.357Z,23.53
2018-11-12T23:37:11.166Z,28.50
2018-11-12T23:39:41.031Z,26.27
2018-11-12T23:42:11.015Z,27.17
2018-11-12T23:44:40.940Z,25.97
2018-11-12T23:47:10.898Z,25.43
2018-11-12T23:49:41.392Z,24.23
2018-11-12T23:52:11.130Z,24.20
2018-11-12T23:54:41.047Z,23.63
2018-11-12T23:57:10.772Z,26.20
2018-11-12T23:59:41.088Z,23.57
